Gaylord, Michigan
Current Conditions -  °F | °C
As of 8:53 AM on Monday 24 Nov 2014 (Local Time) from KGLR Reporting Station
Overcast Overcast  
Wind Chill: 36°   Ceiling: 300
Heat Index: 43°   Visibility: 10mi
Dew Point: 42°   Wind: 14mph
Humidity: 97%   Direction: 230°SW
Pressure: 28.96"   Gusts: NA
Location:  45.03°N, 84.68°W
Report Text: KGLR 241353Z AUTO 23012KT 10SM OVC003 06/06 A2896 RMK AO2 RAE03 SLP812 P0000 T00610056
Loading
Personal Weather Stations






























Interactive Weather Map New forecast layout! Learn more

10-Day Weather Forecast

Advertisements
Track Severe Weather on mobile